KGJTKEGE

Guest
Details From KGJT - Walker Fld
To KEGE - Eagle Co Rgnl
Flight Number -
Tags Generated
Created
Modified
Stats Distance 81 nm / 150 km
Max Altitude 0 ft / 0 m
Waypoints 2
Social Downloads 1
Likes 0
Share VATSIM

Download

Looking for another format? Having issues loading an existing format? Contact us
Advertisement - Login to hide

Notes

Generated

Route

KGJT KEGE

ID Type Via Altitude Latitude Longitude Leg Dist Tot Dist Heading (true) Name
O KGJT APT - 0 ft / 0 m 39.10990˚ -108.52989˚ - 0 nm - -
O KEGE APT - 0 ft / 0 m 39.64472˚ -106.92333˚ 81 nm 81 nm 66° / 67° EAGLE CO RGNL

Altitude Profile

Advertisement - Login to hide

KGJT

Details ICAO KGJT (GJT)
Name WALKER FLD
Region United States
Timezone America/Denver (UTC-7.0)
Stats Elevation 4,858 ft / 1,481 m (AMSL)
Location 39.120479° -108.525609°
Runways 2
Magnetic Variation 9.833° E

METAR

KGJT 131053Z AUTO 00000KT 10SM CLR M04/M12 A3027 RMK AO2 SLP250 T10441122 $

Decode

TAF

KGJT 130531Z 1306/1406 09004KT P6SM SKC FM130900 12004KT P6SM FEW250 FM131800 16004KT P6SM FEW150 SCT250 FM132000 31004KT P6SM FEW150 BKN250 FM140200 35004KT P6SM BKN110 BKN150

Decode

Departure Runways

ID Width Length Bearing (true) Bearing (mag) Surface Threshold Offset Overrun Length
04 75 ft / 23 m 5,495 ft / 1,675 m 54.33° 44.50° Asphalt 0 ft / 0 m 0 ft / 0 m
11 151 ft / 46 m 10,490 ft / 3,197 m 125.28° 115.45° Asphalt 0 ft / 0 m 98 ft / 30 m
22 75 ft / 23 m 5,495 ft / 1,675 m 234.34° 224.51° Asphalt 0 ft / 0 m 0 ft / 0 m
29 151 ft / 46 m 10,490 ft / 3,197 m 305.30° 295.47° Asphalt 0 ft / 0 m 98 ft / 30 m

KEGE

Details ICAO KEGE (EGE)
Name EAGLE CO RGNL
Region United States
Timezone America/Denver (UTC-7.0)
Stats Elevation 6,540 ft / 1,993 m (AMSL)
Location 39.642567° -106.917696°
Runways 1
Magnetic Variation 9.166° E

METAR

KEGE 131056Z AUTO 00000KT 10SM CLR M11/M14 A3034 RMK AO2 SLP323 T11111139 FZRANO

Decode

TAF

KEGE 130531Z 1306/1406 13003KT P6SM SKC FM131900 26005KT P6SM FEW130 SCT250 FM140000 26004KT P6SM BKN110 BKN150 FM140300 34004KT P6SM BKN060 BKN100 AMD LTD TO CLD VIS AND WIND TIL 131400

Decode

Destination Runways

ID Width Length Bearing (true) Bearing (mag) Surface Threshold Offset Overrun Length
07 150 ft / 46 m 7,981 ft / 2,433 m 81.90° 72.73° Asphalt 0 ft / 0 m 0 ft / 0 m
25 150 ft / 46 m 7,981 ft / 2,433 m 261.92° 252.75° Asphalt 0 ft / 0 m 0 ft / 0 m

Approach Navaids

Runway Type Ident Frequency Range Bearing (true) Bearing (mag) Slope Elevation
25 Localiser IESJ 109.75 MHz 18 nm / 33 km 258.91° 249.74° - 6,461 ft / 1,969 m (AMSL)
25 DME IESJ 109.75 MHz 18 nm / 33 km - - - 6,473 ft / 1,973 m (AMSL)